createdAt,value
2019-01-18T00:00:40.354Z,3.00
2019-01-18T00:03:08.919Z,3.00
2019-01-18T00:05:37.526Z,3.00
2019-01-18T00:08:06.251Z,3.00
2019-01-18T00:10:34.729Z,3.00
2019-01-18T00:13:03.225Z,3.00
2019-01-18T00:15:31.791Z,3.00
2019-01-18T00:18:00.331Z,3.00
2019-01-18T00:20:28.882Z,3.00
2019-01-18T00:22:57.445Z,3.00
2019-01-18T00:25:25.911Z,3.00
2019-01-18T00:27:54.460Z,2.90
2019-01-18T00:30:23.760Z,2.90
2019-01-18T00:32:52.325Z,2.90
2019-01-18T00:35:20.875Z,2.90
2019-01-18T00:37:49.429Z,2.90
2019-01-18T00:40:21.954Z,2.80
2019-01-18T00:42:50.416Z,2.80
2019-01-18T00:45:20.237Z,2.80
2019-01-18T00:47:48.736Z,2.70
2019-01-18T00:50:19.121Z,2.70
2019-01-18T00:52:47.835Z,2.70
2019-01-18T00:55:16.620Z,2.70
2019-01-18T00:57:45.362Z,2.70
2019-01-18T01:00:19.681Z,2.60
2019-01-18T01:02:48.412Z,2.70
2019-01-18T01:05:17.719Z,2.70
2019-01-18T01:07:46.268Z,2.60
2019-01-18T01:10:14.940Z,2.70
2019-01-18T01:12:43.546Z,2.80
2019-01-18T01:15:18.335Z,2.80
2019-01-18T01:17:47.391Z,2.90
2019-01-18T01:20:18.221Z,3.00
2019-01-18T01:22:47.675Z,3.10
2019-01-18T01:25:17.139Z,3.00
2019-01-18T01:27:45.740Z,3.00
2019-01-18T01:30:19.793Z,3.00
2019-01-18T01:32:48.400Z,3.00
2019-01-18T01:35:17.300Z,2.80
2019-01-18T01:37:45.845Z,2.90
2019-01-18T01:40:17.062Z,2.90
2019-01-18T01:42:45.705Z,2.90
2019-01-18T01:45:14.914Z,2.90
2019-01-18T01:47:43.665Z,2.90
2019-01-18T01:50:14.942Z,2.80
2019-01-18T01:52:43.417Z,2.80
2019-01-18T01:55:11.975Z,2.70
2019-01-18T01:57:40.450Z,2.60
2019-01-18T02:00:21.138Z,2.60
2019-01-18T02:02:49.937Z,2.60
2019-01-18T02:05:18.552Z,2.70
2019-01-18T02:07:47.081Z,2.60
2019-01-18T02:10:17.897Z,2.60
2019-01-18T02:12:46.505Z,2.50
2019-01-18T02:15:20.053Z,2.50
2019-01-18T02:17:48.725Z,2.40
2019-01-18T02:20:19.041Z,2.40
2019-01-18T02:22:47.722Z,2.50
2019-01-18T02:25:16.362Z,2.40
2019-01-18T02:27:45.641Z,2.50
2019-01-18T02:30:23.026Z,2.40
2019-01-18T02:32:51.632Z,2.30
2019-01-18T02:35:20.132Z,2.40
2019-01-18T02:37:48.765Z,2.40
2019-01-18T02:40:17.398Z,2.30
2019-01-18T02:42:46.074Z,2.40
2019-01-18T02:45:17.097Z,2.40
2019-01-18T02:47:45.918Z,2.40
2019-01-18T02:50:15.015Z,2.40
2019-01-18T02:52:43.790Z,2.50
2019-01-18T02:55:13.262Z,2.50
2019-01-18T02:57:41.885Z,2.70
2019-01-18T03:00:13.772Z,2.80
2019-01-18T03:02:42.243Z,2.80
2019-01-18T03:05:12.956Z,2.80
2019-01-18T03:07:41.584Z,2.70
2019-01-18T03:10:16.460Z,2.80
2019-01-18T03:12:45.010Z,3.00
2019-01-18T03:15:13.848Z,3.10
2019-01-18T03:17:42.328Z,3.20
2019-01-18T03:20:13.338Z,3.20
2019-01-18T03:22:41.879Z,3.20
2019-01-18T03:25:16.198Z,3.00
2019-01-18T03:27:44.748Z,3.00
2019-01-18T03:30:19.206Z,3.00
2019-01-18T03:32:46.226Z,3.10
2019-01-18T03:35:17.163Z,3.20
2019-01-18T03:37:45.765Z,3.20
2019-01-18T03:40:16.470Z,2.90
2019-01-18T03:42:45.167Z,2.90
2019-01-18T03:45:15.767Z,2.90
2019-01-18T03:47:44.421Z,2.90
2019-01-18T03:50:15.723Z,2.90
2019-01-18T03:52:44.336Z,2.90
2019-01-18T03:55:13.249Z,2.90
2019-01-18T03:57:41.806Z,2.90
2019-01-18T04:00:16.219Z,2.80
2019-01-18T04:02:44.936Z,2.90
2019-01-18T04:05:14.436Z,2.90
2019-01-18T04:07:43.027Z,3.00
2019-01-18T04:10:14.695Z,2.90
2019-01-18T04:12:43.833Z,2.90
2019-01-18T04:15:15.073Z,2.90
2019-01-18T04:17:43.556Z,2.80
2019-01-18T04:20:14.692Z,2.70
2019-01-18T04:22:43.264Z,2.70
2019-01-18T04:25:14.759Z,2.70
2019-01-18T04:27:43.284Z,2.70
2019-01-18T04:30:22.491Z,2.70
2019-01-18T04:32:51.369Z,2.70
2019-01-18T04:35:20.368Z,2.80
2019-01-18T04:37:49.089Z,2.90
2019-01-18T04:40:23.561Z,2.80
2019-01-18T04:42:52.258Z,2.90
2019-01-18T04:45:20.982Z,3.00
2019-01-18T04:47:49.513Z,3.00
2019-01-18T04:50:25.853Z,3.00
2019-01-18T04:52:54.466Z,3.00
2019-01-18T04:55:23.219Z,3.00
2019-01-18T04:57:51.870Z,2.90
2019-01-18T05:00:23.518Z,3.00
2019-01-18T05:02:52.079Z,2.90
2019-01-18T05:05:20.782Z,2.90
2019-01-18T05:07:49.397Z,3.00
2019-01-18T05:10:20.542Z,3.00
2019-01-18T05:12:49.374Z,3.10
2019-01-18T05:15:29.570Z,3.00
2019-01-18T05:17:58.188Z,2.90
2019-01-18T05:20:26.701Z,2.90
2019-01-18T05:22:55.343Z,3.00
2019-01-18T05:25:24.318Z,3.00
2019-01-18T05:27:52.791Z,3.00
2019-01-18T05:30:29.312Z,3.00
2019-01-18T05:32:57.935Z,3.10
2019-01-18T05:35:26.561Z,3.10
2019-01-18T05:37:55.037Z,3.10
2019-01-18T05:40:23.873Z,3.10
2019-01-18T05:42:52.634Z,3.00
2019-01-18T05:45:22.549Z,3.00
2019-01-18T05:47:51.513Z,3.00
2019-01-18T05:50:25.248Z,3.00
2019-01-18T05:52:53.853Z,2.80
2019-01-18T05:55:22.728Z,2.70
2019-01-18T05:57:51.221Z,2.80
2019-01-18T06:00:24.129Z,2.80
2019-01-18T06:02:52.589Z,2.70
2019-01-18T06:05:21.264Z,2.70
2019-01-18T06:07:49.726Z,2.60
2019-01-18T06:10:18.352Z,2.60
2019-01-18T06:12:46.884Z,2.60
2019-01-18T06:15:15.591Z,2.70
2019-01-18T06:17:44.119Z,2.70
2019-01-18T06:20:16.874Z,2.70
2019-01-18T06:22:45.442Z,2.60
2019-01-18T06:25:14.298Z,2.60
2019-01-18T06:27:42.938Z,2.80
2019-01-18T06:30:22.034Z,2.90
2019-01-18T06:32:50.521Z,2.70
2019-01-18T06:35:19.198Z,2.70
2019-01-18T06:37:47.844Z,2.50
2019-01-18T06:40:19.109Z,2.60
2019-01-18T06:42:47.678Z,2.70
2019-01-18T06:45:18.663Z,2.80
2019-01-18T06:47:47.151Z,2.70
2019-01-18T06:50:17.453Z,2.70
2019-01-18T06:52:46.001Z,2.80
2019-01-18T06:55:14.690Z,2.70
2019-01-18T06:57:43.501Z,2.60
2019-01-18T07:00:20.800Z,2.50
2019-01-18T07:02:49.604Z,2.20
2019-01-18T07:05:18.314Z,2.10
2019-01-18T07:07:47.037Z,2.30
2019-01-18T07:10:21.011Z,2.40
2019-01-18T07:12:48.805Z,2.40
2019-01-18T07:15:17.692Z,2.40
2019-01-18T07:17:46.244Z,2.50
2019-01-18T07:20:16.864Z,2.40
2019-01-18T07:22:45.761Z,2.40
2019-01-18T07:25:23.335Z,2.40
2019-01-18T07:27:52.043Z,2.30
2019-01-18T07:30:26.709Z,2.30
2019-01-18T07:32:55.211Z,2.30
2019-01-18T07:35:23.753Z,2.30
2019-01-18T07:37:52.399Z,2.30
2019-01-18T07:40:20.957Z,2.30
2019-01-18T07:42:49.578Z,2.30
2019-01-18T07:45:23.751Z,2.30
2019-01-18T07:47:52.385Z,2.30
2019-01-18T07:50:20.996Z,2.40
2019-01-18T07:52:49.905Z,2.40
2019-01-18T07:55:18.713Z,2.40
2019-01-18T07:57:47.337Z,2.50
2019-01-18T08:00:20.985Z,2.50
2019-01-18T08:02:49.883Z,2.50
2019-01-18T08:05:18.984Z,2.60
2019-01-18T08:07:47.680Z,2.60
2019-01-18T08:10:21.576Z,2.80
2019-01-18T08:12:50.206Z,2.90
2019-01-18T08:15:23.817Z,3.00
2019-01-18T08:17:52.545Z,3.10
2019-01-18T08:20:23.244Z,3.00
2019-01-18T08:22:51.877Z,3.00
2019-01-18T08:25:20.505Z,3.00
2019-01-18T08:27:49.187Z,3.10
2019-01-18T08:30:20.273Z,3.10
2019-01-18T08:32:49.036Z,3.40
2019-01-18T08:35:19.365Z,3.50
2019-01-18T08:37:48.169Z,3.60
2019-01-18T08:40:22.229Z,3.80
2019-01-18T08:42:50.868Z,3.90
2019-01-18T08:45:25.308Z,4.10
2019-01-18T08:47:54.140Z,4.20
2019-01-18T08:50:22.773Z,4.30
2019-01-18T08:52:51.606Z,4.50
2019-01-18T08:55:20.091Z,4.80
2019-01-18T08:57:48.696Z,4.90
2019-01-18T09:00:20.094Z,4.80
2019-01-18T09:02:48.719Z,4.60
2019-01-18T09:05:19.909Z,4.50
2019-01-18T09:07:48.384Z,4.40
2019-01-18T09:10:19.953Z,4.50
2019-01-18T09:12:48.472Z,4.40
2019-01-18T09:15:17.268Z,4.50
2019-01-18T09:17:45.814Z,4.60
2019-01-18T09:20:17.440Z,4.70
2019-01-18T09:22:46.055Z,4.70
2019-01-18T09:25:14.744Z,4.80
2019-01-18T09:27:43.394Z,4.80
2019-01-18T09:30:20.548Z,4.90
2019-01-18T09:32:49.357Z,4.80
2019-01-18T09:35:20.261Z,4.80
2019-01-18T09:37:48.799Z,4.70
2019-01-18T09:40:22.664Z,4.60
2019-01-18T09:42:51.336Z,4.60
2019-01-18T09:45:20.175Z,4.60
2019-01-18T09:47:48.868Z,4.50
2019-01-18T09:50:22.333Z,4.50
2019-01-18T09:52:51.038Z,4.50
2019-01-18T09:55:19.656Z,4.70
2019-01-18T09:57:48.264Z,4.70
2019-01-18T10:00:22.567Z,4.80
2019-01-18T10:02:51.177Z,5.10
2019-01-18T10:05:20.180Z,5.30
2019-01-18T10:07:48.858Z,5.40
2019-01-18T10:10:20.048Z,5.50
2019-01-18T10:12:49.526Z,5.50
2019-01-18T10:15:26.633Z,5.60
2019-01-18T10:18:00.658Z,5.70
2019-01-18T10:20:25.670Z,5.70
2019-01-18T10:22:54.451Z,5.80
2019-01-18T10:25:23.163Z,5.90
2019-01-18T10:27:51.776Z,5.90
2019-01-18T10:30:22.951Z,5.80
2019-01-18T10:32:51.490Z,5.90
2019-01-18T10:35:20.199Z,5.90
2019-01-18T10:37:48.804Z,5.90
2019-01-18T10:40:17.744Z,5.90
2019-01-18T10:42:47.434Z,6.00
2019-01-18T10:45:17.409Z,6.10
2019-01-18T10:47:46.449Z,6.30
2019-01-18T10:50:20.453Z,6.50
2019-01-18T10:52:49.066Z,6.50
2019-01-18T10:55:17.622Z,6.70
2019-01-18T10:57:46.330Z,6.80
2019-01-18T11:00:24.466Z,6.80
2019-01-18T11:02:53.192Z,6.80
2019-01-18T11:05:22.568Z,6.80
2019-01-18T11:07:51.128Z,6.90
2019-01-18T11:10:19.838Z,7.00
2019-01-18T11:12:48.456Z,6.90
2019-01-18T11:15:19.260Z,6.70
2019-01-18T11:17:47.900Z,6.60
2019-01-18T11:20:21.944Z,6.60
2019-01-18T11:22:51.333Z,6.70
2019-01-18T11:25:19.805Z,6.70
2019-01-18T11:27:48.363Z,6.80
2019-01-18T11:30:17.354Z,6.80
2019-01-18T11:32:45.980Z,6.80
2019-01-18T11:35:15.168Z,6.80
2019-01-18T11:37:43.662Z,6.80
2019-01-18T11:40:17.453Z,6.90
2019-01-18T11:42:46.081Z,6.80
2019-01-18T11:45:15.257Z,6.80
2019-01-18T11:47:43.893Z,6.90
2019-01-18T11:50:26.410Z,6.80
2019-01-18T11:52:55.044Z,6.80
2019-01-18T11:55:23.652Z,6.90
2019-01-18T11:57:52.282Z,6.90
2019-01-18T12:00:23.058Z,6.90
2019-01-18T12:02:51.686Z,7.00
2019-01-18T12:05:20.460Z,6.90
2019-01-18T12:07:49.301Z,6.80
2019-01-18T12:10:25.704Z,6.80
2019-01-18T12:12:54.329Z,6.90
2019-01-18T12:15:22.857Z,7.10
2019-01-18T12:17:51.444Z,7.20
2019-01-18T12:20:25.428Z,7.40
2019-01-18T12:22:53.985Z,7.40
2019-01-18T12:25:22.458Z,7.40
2019-01-18T12:27:51.019Z,7.40
2019-01-18T12:30:25.556Z,7.30
2019-01-18T12:32:54.113Z,7.20
2019-01-18T12:35:22.674Z,7.00
2019-01-18T12:37:51.298Z,6.70
2019-01-18T12:40:19.845Z,6.40
2019-01-18T12:42:48.498Z,6.30
2019-01-18T12:45:19.378Z,6.10
2019-01-18T12:47:48.096Z,5.90
2019-01-18T12:50:20.514Z,5.70
2019-01-18T12:52:49.184Z,5.50
2019-01-18T12:55:17.805Z,5.40
2019-01-18T12:57:46.441Z,5.30
2019-01-18T13:00:20.709Z,5.10
2019-01-18T13:02:49.420Z,5.10
2019-01-18T13:05:21.080Z,5.00
2019-01-18T13:07:49.697Z,4.80
2019-01-18T13:10:18.248Z,4.80
2019-01-18T13:12:46.972Z,4.70
2019-01-18T13:15:18.548Z,4.50
2019-01-18T13:17:47.109Z,4.60
2019-01-18T13:20:15.659Z,4.60
2019-01-18T13:22:44.303Z,4.60
2019-01-18T13:25:15.165Z,4.70
2019-01-18T13:27:43.821Z,4.90
2019-01-18T13:30:15.189Z,4.90
2019-01-18T13:32:44.020Z,5.00
2019-01-18T13:35:12.574Z,5.10
2019-01-18T13:37:42.091Z,5.20
2019-01-18T13:40:16.159Z,5.30
2019-01-18T13:42:44.736Z,5.40
2019-01-18T13:45:13.845Z,5.50
2019-01-18T13:47:43.418Z,5.60
2019-01-18T13:50:17.125Z,5.80
2019-01-18T13:52:45.841Z,5.90
2019-01-18T13:55:28.552Z,6.00
2019-01-18T13:57:57.184Z,6.20
2019-01-18T14:00:25.730Z,6.20
2019-01-18T14:02:54.377Z,6.20
2019-01-18T14:05:22.989Z,6.10
2019-01-18T14:07:53.335Z,5.90
2019-01-18T14:10:24.794Z,6.00
2019-01-18T14:12:53.449Z,6.00
2019-01-18T14:15:23.704Z,5.90
2019-01-18T14:17:52.371Z,5.90
2019-01-18T14:20:22.941Z,5.90
2019-01-18T14:22:52.634Z,5.80
2019-01-18T14:25:21.262Z,5.80
2019-01-18T14:27:49.870Z,5.90
2019-01-18T14:30:21.098Z,5.90
2019-01-18T14:32:55.389Z,6.00
2019-01-18T14:35:19.934Z,6.10
2019-01-18T14:37:48.542Z,6.20
2019-01-18T14:40:18.249Z,6.30
2019-01-18T14:42:48.137Z,6.40
2019-01-18T14:45:34.266Z,6.50
2019-01-18T14:48:02.737Z,6.60
2019-01-18T14:50:31.303Z,6.70
2019-01-18T14:52:59.858Z,6.80
2019-01-18T14:55:28.409Z,7.00
2019-01-18T14:57:57.035Z,7.20
2019-01-18T15:00:29.205Z,7.30
2019-01-18T15:03:02.278Z,7.40
2019-01-18T15:05:28.078Z,7.40
2019-01-18T15:07:56.633Z,7.60
2019-01-18T15:10:25.852Z,7.80
2019-01-18T15:13:00.381Z,7.80
2019-01-18T15:15:29.119Z,7.70
2019-01-18T15:17:57.701Z,7.60
2019-01-18T15:20:28.431Z,7.40
2019-01-18T15:22:57.108Z,7.10
2019-01-18T15:25:25.685Z,7.10
2019-01-18T15:27:54.230Z,6.90
2019-01-18T15:30:25.507Z,6.80
2019-01-18T15:32:54.191Z,6.50
2019-01-18T15:35:25.692Z,6.40
2019-01-18T15:37:54.234Z,6.10
2019-01-18T15:40:28.089Z,5.80
2019-01-18T15:42:58.419Z,5.60
2019-01-18T15:45:27.326Z,5.30
2019-01-18T15:47:55.930Z,5.10
2019-01-18T15:50:26.914Z,4.90
2019-01-18T15:52:55.796Z,4.80
2019-01-18T15:55:24.769Z,4.60
2019-01-18T15:57:53.241Z,4.50
2019-01-18T16:00:32.862Z,4.40
2019-01-18T16:03:01.397Z,4.30
2019-01-18T16:05:30.106Z,4.10
2019-01-18T16:07:58.645Z,4.00
2019-01-18T16:10:27.458Z,3.90
2019-01-18T16:12:56.231Z,3.80
2019-01-18T16:15:30.678Z,3.70
2019-01-18T16:17:59.149Z,3.60
2019-01-18T16:20:27.722Z,3.50
2019-01-18T16:22:56.345Z,3.40
2019-01-18T16:25:27.278Z,3.40
2019-01-18T16:27:55.896Z,3.30
2019-01-18T16:30:26.005Z,3.20
2019-01-18T16:32:56.788Z,3.20
2019-01-18T16:35:25.498Z,3.10
2019-01-18T16:37:54.181Z,3.10
2019-01-18T16:40:25.752Z,3.00
2019-01-18T16:43:05.974Z,3.00
2019-01-18T16:45:34.526Z,2.90
2019-01-18T16:48:03.154Z,2.90
2019-01-18T16:50:31.712Z,2.80
2019-01-18T16:53:00.366Z,2.80
2019-01-18T16:55:28.942Z,2.80
2019-01-18T16:57:57.555Z,2.80
2019-01-18T17:00:31.753Z,2.80
2019-01-18T17:03:00.373Z,2.80
2019-01-18T17:05:29.011Z,2.80
2019-01-18T17:07:57.684Z,2.80
2019-01-18T17:10:26.395Z,2.80
2019-01-18T17:12:54.943Z,2.80
2019-01-18T17:15:23.588Z,2.80
2019-01-18T17:17:52.129Z,2.80
2019-01-18T17:20:30.444Z,2.80
2019-01-18T17:22:59.332Z,2.80
2019-01-18T17:25:27.824Z,2.80
2019-01-18T17:27:56.372Z,2.80
2019-01-18T17:30:25.017Z,2.90
2019-01-18T17:32:53.639Z,2.90
2019-01-18T17:35:33.890Z,2.90
2019-01-18T17:38:14.516Z,2.90
2019-01-18T17:40:51.881Z,2.90
2019-01-18T17:43:23.451Z,2.90
2019-01-18T17:46:00.889Z,2.90
2019-01-18T17:48:38.288Z,2.90
2019-01-18T17:51:12.764Z,2.90
2019-01-18T17:53:59.015Z,2.90
2019-01-18T17:56:36.496Z,2.90
2019-01-18T17:59:13.858Z,2.90
2019-01-18T18:01:57.576Z,2.90
2019-01-18T18:04:45.309Z,2.90
2019-01-18T18:07:39.187Z,2.90
2019-01-18T18:10:19.763Z,2.90
2019-01-18T18:13:03.168Z,3.00
2019-01-18T18:16:03.718Z,3.00
2019-01-18T18:18:56.410Z,3.00
2019-01-18T18:21:49.048Z,2.90
2019-01-18T18:24:35.564Z,2.90
2019-01-18T18:27:18.976Z,2.90
2019-01-18T18:29:56.326Z,2.90
2019-01-18T18:32:44.730Z,2.80
2019-01-18T18:35:51.731Z,2.80
2019-01-18T18:38:29.045Z,2.80
2019-01-18T18:41:04.942Z,2.80
2019-01-18T18:43:42.302Z,2.70
2019-01-18T18:46:30.397Z,2.70
2019-01-18T18:49:07.751Z,2.70
2019-01-18T18:51:51.328Z,2.70
2019-01-18T18:54:47.945Z,2.60
2019-01-18T18:57:28.024Z,2.60
2019-01-18T19:00:09.317Z,2.60
2019-01-18T19:02:44.346Z,2.60
2019-01-18T19:05:27.494Z,2.60
2019-01-18T19:08:04.970Z,2.60
2019-01-18T19:10:45.203Z,2.50
2019-01-18T19:13:38.036Z,2.50
2019-01-18T19:16:15.329Z,2.40
2019-01-18T19:18:52.597Z,2.40
2019-01-18T19:21:40.717Z,2.40
2019-01-18T19:24:39.139Z,2.40
2019-01-18T19:27:27.592Z,2.30
2019-01-18T19:30:04.909Z,2.30
2019-01-18T19:32:42.301Z,2.30
2019-01-18T19:35:16.533Z,2.30
2019-01-18T19:38:10.592Z,2.30
2019-01-18T19:41:00.088Z,2.20
2019-01-18T19:43:46.615Z,2.20
2019-01-18T19:46:41.158Z,2.10
2019-01-18T19:49:24.963Z,2.10
2019-01-18T19:52:11.468Z,2.00
2019-01-18T19:54:45.846Z,2.00
2019-01-18T19:57:17.414Z,2.00
2019-01-18T20:00:19.293Z,2.00
2019-01-18T20:02:53.638Z,2.00
2019-01-18T20:05:30.793Z,1.90
2019-01-18T20:08:19.031Z,1.90
2019-01-18T20:10:53.488Z,1.90
2019-01-18T20:13:49.340Z,1.80
2019-01-18T20:16:20.955Z,1.80
2019-01-18T20:18:55.125Z,1.70
2019-01-18T20:21:32.145Z,1.70
2019-01-18T20:24:12.589Z,1.70
2019-01-18T20:26:58.849Z,1.70
2019-01-18T20:29:45.109Z,1.70
2019-01-18T20:32:16.755Z,1.60
2019-01-18T20:34:51.317Z,1.60
2019-01-18T20:37:25.755Z,1.60
2019-01-18T20:40:03.639Z,1.60
2019-01-18T20:42:56.384Z,1.60
2019-01-18T20:45:51.589Z,1.50
2019-01-18T20:48:38.341Z,1.40
2019-01-18T20:51:15.824Z,1.40
2019-01-18T20:53:56.221Z,1.30
2019-01-18T20:56:39.582Z,1.30
2019-01-18T20:59:20.325Z,1.30
2019-01-18T21:02:03.647Z,1.30
2019-01-18T21:05:04.070Z,1.20
2019-01-18T21:07:50.821Z,1.20
2019-01-18T21:10:28.840Z,1.20
2019-01-18T21:13:18.703Z,1.10
2019-01-18T21:16:11.699Z,1.10
2019-01-18T21:19:13.375Z,1.00
2019-01-18T21:22:07.514Z,1.10
2019-01-18T21:24:47.917Z,1.00
2019-01-18T21:27:28.264Z,1.00
2019-01-18T21:30:14.846Z,1.00
2019-01-18T21:32:49.014Z,1.00
2019-01-18T21:35:35.769Z,1.00
2019-01-18T21:38:16.169Z,1.00
2019-01-18T21:40:50.327Z,1.00
2019-01-18T21:43:44.769Z,1.00
2019-01-18T21:46:22.345Z,1.00
2019-01-18T21:49:13.660Z,0.90
2019-01-18T21:51:57.231Z,0.90
2019-01-18T21:54:40.765Z,0.90
2019-01-18T21:57:24.110Z,0.80
2019-01-18T22:00:07.362Z,0.80
2019-01-18T22:02:53.921Z,0.80
2019-01-18T22:05:34.446Z,0.80
2019-01-18T22:08:34.778Z,0.80
2019-01-18T22:11:23.072Z,0.70
2019-01-18T22:14:15.953Z,0.70
2019-01-18T22:17:02.393Z,0.60
2019-01-18T22:19:39.768Z,0.70
2019-01-18T22:22:14.181Z,0.70
2019-01-18T22:25:02.123Z,0.70
2019-01-18T22:27:48.667Z,0.70
2019-01-18T22:30:36.478Z,0.70
2019-01-18T22:33:23.108Z,0.80
2019-01-18T22:36:17.006Z,0.80
2019-01-18T22:39:12.921Z,0.70
2019-01-18T22:41:50.205Z,0.80
2019-01-18T22:44:33.102Z,0.70
2019-01-18T22:47:31.524Z,0.70
2019-01-18T22:50:03.094Z,0.70
2019-01-18T22:52:38.013Z,0.60
2019-01-18T22:55:33.968Z,0.60
2019-01-18T22:58:14.302Z,0.60
2019-01-18T23:01:16.805Z,0.60
2019-01-18T23:03:51.277Z,0.60
2019-01-18T23:06:25.427Z,0.50
2019-01-18T23:09:12.353Z,0.50
2019-01-18T23:11:58.981Z,0.50
2019-01-18T23:14:51.821Z,0.60
2019-01-18T23:17:26.145Z,0.50
2019-01-18T23:20:18.534Z,0.50
2019-01-18T23:23:01.893Z,0.50
2019-01-18T23:25:33.445Z,0.50
2019-01-18T23:28:22.961Z,0.50
2019-01-18T23:31:03.625Z,0.50
2019-01-18T23:33:44.100Z,0.50
2019-01-18T23:36:18.489Z,0.50
2019-01-18T23:39:15.874Z,0.50
2019-01-18T23:42:02.422Z,0.50
2019-01-18T23:44:49.091Z,0.40
2019-01-18T23:47:29.849Z,0.50
2019-01-18T23:50:22.413Z,0.40
2019-01-18T23:53:09.801Z,0.40
2019-01-18T23:55:53.772Z,0.40
2019-01-18T23:58:34.496Z,0.40
